Carnival Splendor — 3EUS — position and weather

sailwx.info

Track history (hours):
 
Tides and Currents Weather Stations Pressure Air Temp Water Temp Dewpoint Dewpoint Depression Visibility Wind Speed Wind Dir Waves Ship Positions

Carnival Splendor

Last reported at 2017-Aug-20 00:12 UTC. Time now 2017-Aug-20 04:04 UTC.
Position N 25°14' W 079°45'.

Length 290 m; draft 8.3 m.

Type: Ship. MMSI: 372808000.

Date/timePositionNaut miles runAvg speedWind from/ knotsBaromVisibWave heightAir tempDewpointWater temp
2017-Aug-20 00:12N 25°14' W 079°45'617.4
2017-Aug-19 23:52N 25°20' W 079°47'616.6
2017-Aug-19 23:30N 25°25' W 079°50'816.1
2017-Aug-19 23:00N 25°33' W 079°52'815.9
2017-Aug-19 22:30N 25°41' W 079°55'816.4
2017-Aug-19 22:00N 25°49' W 079°57'816.4
2017-Aug-19 21:30N 25°56' W 079°60'816.5
2017-Aug-19 21:00N 26°04' W 080°04'3 6.5
2017-Aug-19 20:30N 26°05' W 080°07'0 0.1
2017-Aug-19 19:58N 26°05' W 080°07'0 0.0
2017-Aug-19 19:28N 26°05' W 080°07'0 0.0
2017-Aug-19 18:58N 26°05' W 080°07'0 0.0
2017-Aug-19 18:28N 26°05' W 080°07'0 0.0
2017-Aug-19 17:59N 26°05' W 080°07'0 0.0
2017-Aug-19 17:29N 26°05' W 080°07'0 0.0
2017-Aug-19 14:36N 26°05' W 080°07'0 0.0
2017-Aug-19 13:59N 26°05' W 080°07'0 0.0
2017-Aug-19 13:29N 26°05' W 080°07'0 0.0
2017-Aug-19 12:59N 26°05' W 080°07'0 0.0
2017-Aug-19 12:29N 26°05' W 080°07'0 0.0
2017-Aug-19 11:59N 26°05' W 080°07'0 0.0
2017-Aug-19 11:28N 26°05' W 080°07'0 0.0
2017-Aug-19 10:58N 26°05' W 080°07'0 0.0
2017-Aug-19 10:28N 26°05' W 080°07'0 0.0
2017-Aug-19 09:58N 26°05' W 080°07'0 0.0
2017-Aug-19 09:30N 26°05' W 080°07'0 0.0
2017-Aug-19 09:00N 26°05' W 080°07'0 0.0
2017-Aug-19 08:30N 26°05' W 080°07'0 0.0
2017-Aug-19 08:00N 26°05' W 080°07'0 0.0
2017-Aug-19 07:30N 26°05' W 080°07'0 0.0
2017-Aug-19 07:00N 26°05' W 080°07'1 1.6
2017-Aug-19 06:30N 26°06' W 080°06'4 8.9
2017-Aug-19 06:00N 26°05' W 080°01'611.9
2017-Aug-19 05:30N 26°03' W 079°55'815.3
2017-Aug-19 05:00N 25°57' W 079°49'1019.7
2017-Aug-19 04:30N 25°49' W 079°43'1121.9
2017-Aug-19 04:00N 25°39' W 079°41'1122.5
2017-Aug-19 03:30N 25°27' W 079°39'1122.6
2017-Aug-19 03:00N 25°16' W 079°37'33319.6
2017-Aug-18 10:00N 21°18' W 075°24'246 9.9 090 / 171012.010.8 28.121.429.0
2017-Aug-17 09:00N 20°06' W 071°12'134 5.8 050 / 291013.0 28.122.729.0
2017-Aug-16 10:00N 22°12' W 072°00'27210.9 070 / 251016.0 28.322.929.0
2017-Aug-15 09:00N 25°00' W 075°54'64 2.8 140 / 151015.010.8 28.521.129.0
2017-Aug-14 10:00N 25°24' W 077°00'13713.7 160 / 91014.010.8 28.521.430.0
2017-Aug-13 23:59N 26°15' W 079°21'817.3
2017-Aug-13 23:31N 26°13' W 079°30'917.3
2017-Aug-13 23:01N 26°11' W 079°39'917.6
2017-Aug-13 22:31N 26°09' W 079°49'917.9
2017-Aug-13 22:01N 26°07' W 079°59'714.0
2017-Aug-13 21:31N 26°06' W 080°06'1 1.8
2017-Aug-13 20:58N 26°05' W 080°07'0 0.0
2017-Aug-13 20:30N 26°05' W 080°07'0 0.0
2017-Aug-13 20:00N 26°05' W 080°07'0 0.0
2017-Aug-13 19:30N 26°05' W 080°07'0 0.0
2017-Aug-13 19:00N 26°05' W 080°07'0 0.0
2017-Aug-13 18:30N 26°05' W 080°07'0 0.0
2017-Aug-13 18:00N 26°05' W 080°07'0 0.0
2017-Aug-13 17:30N 26°05' W 080°07'0 0.0
2017-Aug-13 17:00N 26°05' W 080°07'0 0.0
2017-Aug-13 16:30N 26°05' W 080°07'0 0.0
2017-Aug-13 16:00N 26°05' W 080°07'0 0.0
2017-Aug-13 15:29N 26°05' W 080°07'0 0.0
2017-Aug-13 14:59N 26°05' W 080°07'0 0.0
2017-Aug-13 14:29N 26°05' W 080°07'0 0.0
2017-Aug-13 13:59N 26°05' W 080°07'0 0.0
2017-Aug-13 13:28N 26°05' W 080°07'0 0.0
2017-Aug-13 12:58N 26°05' W 080°07'0 0.0
2017-Aug-13 12:28N 26°05' W 080°07'0 0.0
2017-Aug-13 11:58N 26°05' W 080°07'0 0.0
2017-Aug-13 11:28N 26°05' W 080°07'0 0.0
2017-Aug-13 11:00N 26°05' W 080°07'5327.8
2017-Aug-13 11:00N 26°00' W 080°06'510.8 310 / 21014.0 5.4 28.122.930.0
2017-Aug-13 10:30N 26°05' W 080°07'0 0.0
2017-Aug-13 10:00N 26°05' W 080°07'0 0.0
2017-Aug-13 09:30N 26°05' W 080°07'0 0.2
2017-Aug-13 09:00N 26°05' W 080°07'5 9.2
2017-Aug-13 08:30N 26°05' W 080°02'612.6
2017-Aug-13 08:01N 26°02' W 079°56'714.0
2017-Aug-13 07:30N 25°57' W 079°50'611.4
2017-Aug-13 07:00N 25°53' W 079°46'612.4
2017-Aug-13 06:30N 25°49' W 079°41'713.6
2017-Aug-13 06:00N 25°42' W 079°41'714.0
2017-Aug-13 05:30N 25°35' W 079°40'714.2
2017-Aug-13 05:01N 25°28' W 079°39'713.7
2017-Aug-13 04:30N 25°21' W 079°38'31716.3
2017-Aug-12 09:00N 21°24' W 075°48'37116.2 080 / 101013.0 5.4 28.022.029.0
2017-Aug-11 10:00N 15°54' W 072°48'   100 / 181012.0 28.122.728.0
Track history (hours):
 
Tides and Currents Weather Stations Pressure Air Temp Water Temp Dewpoint Dewpoint Depression Visibility Wind Speed Wind Dir Waves Ship Positions

Carnival Splendor

Last reported at 2017-Aug-20 00:12 UTC. Time now 2017-Aug-20 04:04 UTC.
Position N 25°14' W 079°45'.

Length 290 m; draft 8.3 m.

Type: Ship. MMSI: 372808000.

Date/timePositionNaut miles runAvg speedWind from/ knotsBaromVisibWave heightAir tempDewpointWater temp
2017-Aug-20 00:12N 25°14' W 079°45'617.4
2017-Aug-19 23:52N 25°20' W 079°47'616.6
2017-Aug-19 23:30N 25°25' W 079°50'816.1
2017-Aug-19 23:00N 25°33' W 079°52'815.9
2017-Aug-19 22:30N 25°41' W 079°55'816.4
2017-Aug-19 22:00N 25°49' W 079°57'816.4
2017-Aug-19 21:30N 25°56' W 079°60'816.5
2017-Aug-19 21:00N 26°04' W 080°04'3 6.5
2017-Aug-19 20:30N 26°05' W 080°07'0 0.1
2017-Aug-19 19:58N 26°05' W 080°07'0 0.0
2017-Aug-19 19:28N 26°05' W 080°07'0 0.0
2017-Aug-19 18:58N 26°05' W 080°07'0 0.0
2017-Aug-19 18:28N 26°05' W 080°07'0 0.0
2017-Aug-19 17:59N 26°05' W 080°07'0 0.0
2017-Aug-19 17:29N 26°05' W 080°07'0 0.0
2017-Aug-19 14:36N 26°05' W 080°07'0 0.0
2017-Aug-19 13:59N 26°05' W 080°07'0 0.0
2017-Aug-19 13:29N 26°05' W 080°07'0 0.0
2017-Aug-19 12:59N 26°05' W 080°07'0 0.0
2017-Aug-19 12:29N 26°05' W 080°07'0 0.0
2017-Aug-19 11:59N 26°05' W 080°07'0 0.0
2017-Aug-19 11:28N 26°05' W 080°07'0 0.0
2017-Aug-19 10:58N 26°05' W 080°07'0 0.0
2017-Aug-19 10:28N 26°05' W 080°07'0 0.0
2017-Aug-19 09:58N 26°05' W 080°07'0 0.0
2017-Aug-19 09:30N 26°05' W 080°07'0 0.0
2017-Aug-19 09:00N 26°05' W 080°07'0 0.0
2017-Aug-19 08:30N 26°05' W 080°07'0 0.0
2017-Aug-19 08:00N 26°05' W 080°07'0 0.0
2017-Aug-19 07:30N 26°05' W 080°07'0 0.0
2017-Aug-19 07:00N 26°05' W 080°07'1 1.6
2017-Aug-19 06:30N 26°06' W 080°06'4 8.9
2017-Aug-19 06:00N 26°05' W 080°01'611.9
2017-Aug-19 05:30N 26°03' W 079°55'815.3
2017-Aug-19 05:00N 25°57' W 079°49'1019.7
2017-Aug-19 04:30N 25°49' W 079°43'1121.9
2017-Aug-19 04:00N 25°39' W 079°41'1122.5
2017-Aug-19 03:30N 25°27' W 079°39'1122.6
2017-Aug-19 03:00N 25°16' W 079°37'33319.6
2017-Aug-18 10:00N 21°18' W 075°24'246 9.9 090 / 171012.010.8 28.121.429.0
2017-Aug-17 09:00N 20°06' W 071°12'134 5.8 050 / 291013.0 28.122.729.0
2017-Aug-16 10:00N 22°12' W 072°00'27210.9 070 / 251016.0 28.322.929.0
2017-Aug-15 09:00N 25°00' W 075°54'64 2.8 140 / 151015.010.8 28.521.129.0
2017-Aug-14 10:00N 25°24' W 077°00'13713.7 160 / 91014.010.8 28.521.430.0
2017-Aug-13 23:59N 26°15' W 079°21'817.3
2017-Aug-13 23:31N 26°13' W 079°30'917.3
2017-Aug-13 23:01N 26°11' W 079°39'917.6
2017-Aug-13 22:31N 26°09' W 079°49'917.9
2017-Aug-13 22:01N 26°07' W 079°59'714.0
2017-Aug-13 21:31N 26°06' W 080°06'1 1.8
2017-Aug-13 20:58N 26°05' W 080°07'0 0.0
2017-Aug-13 20:30N 26°05' W 080°07'0 0.0
2017-Aug-13 20:00N 26°05' W 080°07'0 0.0
2017-Aug-13 19:30N 26°05' W 080°07'0 0.0
2017-Aug-13 19:00N 26°05' W 080°07'0 0.0
2017-Aug-13 18:30N 26°05' W 080°07'0 0.0
2017-Aug-13 18:00N 26°05' W 080°07'0 0.0
2017-Aug-13 17:30N 26°05' W 080°07'0 0.0
2017-Aug-13 17:00N 26°05' W 080°07'0 0.0
2017-Aug-13 16:30N 26°05' W 080°07'0 0.0
2017-Aug-13 16:00N 26°05' W 080°07'0 0.0
2017-Aug-13 15:29N 26°05' W 080°07'0 0.0
2017-Aug-13 14:59N 26°05' W 080°07'0 0.0
2017-Aug-13 14:29N 26°05' W 080°07'0 0.0
2017-Aug-13 13:59N 26°05' W 080°07'0 0.0
2017-Aug-13 13:28N 26°05' W 080°07'0 0.0
2017-Aug-13 12:58N 26°05' W 080°07'0 0.0
2017-Aug-13 12:28N 26°05' W 080°07'0 0.0
2017-Aug-13 11:58N 26°05' W 080°07'0 0.0
2017-Aug-13 11:28N 26°05' W 080°07'0 0.0
2017-Aug-13 11:00N 26°05' W 080°07'5327.8
2017-Aug-13 11:00N 26°00' W 080°06'510.8 310 / 21014.0 5.4 28.122.930.0
2017-Aug-13 10:30N 26°05' W 080°07'0 0.0
2017-Aug-13 10:00N 26°05' W 080°07'0 0.0
2017-Aug-13 09:30N 26°05' W 080°07'0 0.2
2017-Aug-13 09:00N 26°05' W 080°07'5 9.2
2017-Aug-13 08:30N 26°05' W 080°02'612.6
2017-Aug-13 08:01N 26°02' W 079°56'714.0
2017-Aug-13 07:30N 25°57' W 079°50'611.4
2017-Aug-13 07:00N 25°53' W 079°46'612.4
2017-Aug-13 06:30N 25°49' W 079°41'713.6
2017-Aug-13 06:00N 25°42' W 079°41'714.0
2017-Aug-13 05:30N 25°35' W 079°40'714.2
2017-Aug-13 05:01N 25°28' W 079°39'713.7
2017-Aug-13 04:30N 25°21' W 079°38'31716.3
2017-Aug-12 09:00N 21°24' W 075°48'37116.2 080 / 101013.0 5.4 28.022.029.0
2017-Aug-11 10:00N 15°54' W 072°48'   100 / 181012.0 28.122.728.0

Dump ship's entire track history